Time;durP1;ratioP1;P1;durP2;ratioP2;P2;SDS_P1;SDS_P2;PMS_P1;PMS_P2;Temp;Humidity;BMP_temperature;BMP_pressure;BME280_temperature;BME280_humidity;BME280_pressure;Samples;Min_cycle;Max_cycle;Signal;HPM_P1;HPM_P2
2023/07/30 00:02:21;;;;;;;11.83;10.70;;;17.60;99.90;;;;;;5040815;28;20454;-79
2023/07/30 00:04:48;;;;;;;11.50;9.80;;;17.50;99.90;;;;;;5042775;28;20800;-78
2023/07/30 00:07:16;;;;;;;20.23;12.10;;;17.50;99.90;;;;;;5046964;28;20452;-79
2023/07/30 00:09:44;;;;;;;13.60;12.40;;;17.50;99.90;;;;;;5050246;28;20565;-78
2023/07/30 00:12:11;;;;;;;13.77;12.23;;;17.50;99.90;;;;;;5047192;28;20961;-78
2023/07/30 00:14:38;;;;;;;12.50;10.77;;;17.40;99.90;;;;;;5044103;28;20819;-78
2023/07/30 00:17:05;;;;;;;11.43;10.33;;;17.40;99.90;;;;;;5040791;28;20461;-78
2023/07/30 00:19:33;;;;;;;12.37;11.17;;;17.40;99.90;;;;;;5034775;28;20544;-76
2023/07/30 00:22:00;;;;;;;11.73;10.57;;;17.50;99.90;;;;;;5040569;28;20493;-78
2023/07/30 00:24:27;;;;;;;12.97;11.70;;;17.50;99.90;;;;;;5037365;28;21030;-77
2023/07/30 00:26:55;;;;;;;13.50;12.20;;;17.50;99.90;;;;;;5036248;28;20453;-78
2023/07/30 00:29:22;;;;;;;13.17;11.80;;;17.50;99.90;;;;;;5045933;28;20487;-76
2023/07/30 00:31:49;;;;;;;11.37;10.27;;;17.40;99.90;;;;;;5029667;28;20788;-79
2023/07/30 00:34:15;;;;;;;11.83;10.73;;;17.40;99.90;;;;;;5045517;28;20548;-77
2023/07/30 00:36:42;;;;;;;13.70;11.10;;;17.40;99.90;;;;;;5045632;28;20813;-78
2023/07/30 00:39:11;;;;;;;12.90;10.93;;;17.30;99.90;;;;;;5043601;28;20942;-78
2023/07/30 00:41:37;;;;;;;15.30;12.23;;;17.30;99.90;;;;;;5043146;28;20480;-78
2023/07/30 00:44:06;;;;;;;12.10;11.00;;;17.30;99.90;;;;;;5044332;28;20505;-78
2023/07/30 00:46:33;;;;;;;11.63;10.53;;;17.30;99.90;;;;;;5046633;28;20535;-78
2023/07/30 00:49:00;;;;;;;13.90;10.27;;;17.20;99.90;;;;;;5044003;28;20484;-78
2023/07/30 00:51:28;;;;;;;11.10;9.50;;;17.20;99.90;;;;;;5028001;28;20541;-78
2023/07/30 00:53:55;;;;;;;12.90;11.60;;;17.20;99.90;;;;;;5039400;28;20462;-78
2023/07/30 00:56:22;;;;;;;13.13;9.70;;;17.20;99.90;;;;;;5045379;28;20450;-78
2023/07/30 00:58:50;;;;;;;12.33;11.03;;;17.10;99.90;;;;;;5043417;28;20609;-79
2023/07/30 01:01:18;;;;;;;10.80;9.50;;;17.10;99.90;;;;;;5050598;28;20423;-76
2023/07/30 01:03:46;;;;;;;10.50;8.50;;;17.10;99.90;;;;;;5072458;28;20465;-77
2023/07/30 01:06:12;;;;;;;13.13;10.70;;;17.10;99.90;;;;;;5055199;28;20512;-77
2023/07/30 01:08:40;;;;;;;10.60;9.60;;;17.00;99.90;;;;;;5043419;28;20529;-77
2023/07/30 01:11:09;;;;;;;12.33;10.20;;;17.00;99.90;;;;;;5042660;28;20960;-77
2023/07/30 01:13:37;;;;;;;12.07;10.00;;;17.00;99.90;;;;;;5043341;28;20802;-77
2023/07/30 01:16:06;;;;;;;15.93;11.53;;;16.90;99.90;;;;;;5044192;28;20218;-77
2023/07/30 01:18:34;;;;;;;12.67;11.17;;;16.90;99.90;;;;;;5043622;28;20886;-76
2023/07/30 01:21:03;;;;;;;14.97;11.80;;;16.80;99.90;;;;;;5041298;28;20481;-77
2023/07/30 01:23:30;;;;;;;12.40;11.10;;;16.70;99.90;;;;;;5041466;28;20470;-76
2023/07/30 01:26:03;;;;;;;12.73;10.93;;;16.70;99.90;;;;;;5044762;28;20525;-76
2023/07/30 01:28:37;;;;;;;11.47;10.37;;;16.70;99.90;;;;;;5039152;28;20442;-76
2023/07/30 01:31:05;;;;;;;10.63;9.60;;;16.70;99.90;;;;;;5043247;28;20896;-78
2023/07/30 01:33:33;;;;;;;14.23;12.60;;;16.70;99.90;;;;;;5039769;28;20474;-77
2023/07/30 01:36:00;;;;;;;14.43;10.73;;;16.60;99.90;;;;;;5048292;28;20937;-76
2023/07/30 01:38:30;;;;;;;36.20;22.10;;;16.60;99.90;;;;;;5040641;28;20298;-76
2023/07/30 01:40:57;;;;;;;12.87;11.07;;;16.60;99.90;;;;;;5047559;28;20526;-77
2023/07/30 01:43:24;;;;;;;13.47;12.10;;;16.60;99.90;;;;;;5039357;28;20521;-77
2023/07/30 01:45:51;;;;;;;18.58;12.50;;;16.50;99.90;;;;;;5037804;28;20537;-77
2023/07/30 01:48:18;;;;;;;15.10;10.53;;;16.60;99.90;;;;;;5038462;28;20242;-77
2023/07/30 01:50:47;;;;;;;15.93;11.63;;;16.60;99.90;;;;;;5044873;28;20495;-77
2023/07/30 01:53:13;;;;;;;11.83;10.27;;;16.50;99.90;;;;;;5037064;28;20477;-76
2023/07/30 01:55:45;;;;;;;14.30;11.17;;;16.50;99.90;;;;;;5042483;28;20465;-76
2023/07/30 01:58:12;;;;;;;13.98;9.52;;;16.50;99.90;;;;;;5039864;28;20896;-76
2023/07/30 02:00:39;;;;;;;14.85;11.13;;;16.40;99.90;;;;;;5036622;28;20253;-77
2023/07/30 02:03:06;;;;;;;13.82;11.07;;;16.50;99.90;;;;;;5043408;28;20314;-77
2023/07/30 02:05:34;;;;;;;10.90;9.90;;;16.50;99.90;;;;;;5051354;28;20204;-76
2023/07/30 02:08:00;;;;;;;15.63;11.20;;;16.50;99.90;;;;;;5044666;28;20476;-76
2023/07/30 02:10:29;;;;;;;13.93;10.73;;;16.40;99.90;;;;;;5040739;28;20490;-77
2023/07/30 02:12:57;;;;;;;14.00;10.77;;;16.30;99.90;;;;;;5039074;28;20483;-77
2023/07/30 02:15:24;;;;;;;13.27;10.00;;;16.30;99.90;;;;;;5047089;28;20465;-76
2023/07/30 02:17:51;;;;;;;11.02;10.00;;;16.30;99.90;;;;;;5044016;28;20537;-77
2023/07/30 02:20:18;;;;;;;11.45;10.10;;;16.30;99.90;;;;;;5048669;28;20287;-77
2023/07/30 02:22:44;;;;;;;15.55;11.40;;;16.20;99.90;;;;;;5045280;28;20229;-77
2023/07/30 02:25:12;;;;;;;14.75;11.05;;;16.20;99.90;;;;;;5045623;28;20208;-77
2023/07/30 02:27:39;;;;;;;12.27;11.02;;;16.20;99.90;;;;;;5044329;28;20201;-77
2023/07/30 02:30:10;;;;;;;11.80;10.57;;;16.10;99.90;;;;;;5046242;28;20222;-78
2023/07/30 02:32:37;;;;;;;14.60;11.93;;;16.00;99.90;;;;;;5044920;28;20668;-77
2023/07/30 02:35:05;;;;;;;14.05;10.05;;;16.00;99.90;;;;;;5044434;28;20214;-77
2023/07/30 02:37:31;;;;;;;14.52;11.80;;;16.00;99.90;;;;;;5044163;28;20213;-77
2023/07/30 02:39:59;;;;;;;17.47;15.67;;;16.00;99.90;;;;;;5033348;28;20230;-77
2023/07/30 02:42:26;;;;;;;20.35;11.15;;;16.00;99.90;;;;;;5034016;28;20458;-77
2023/07/30 02:44:53;;;;;;;13.38;10.50;;;15.90;99.90;;;;;;5033772;28;20204;-77
2023/07/30 02:47:21;;;;;;;18.33;12.57;;;15.90;99.90;;;;;;5034796;28;20227;-78
2023/07/30 02:49:48;;;;;;;15.25;9.75;;;15.90;99.90;;;;;;5033531;28;20530;-81
2023/07/30 02:52:15;;;;;;;16.10;13.45;;;15.90;99.90;;;;;;5039272;28;20268;-78
2023/07/30 02:54:47;;;;;;;14.55;13.10;;;15.90;99.90;;;;;;5055346;28;20218;-76
2023/07/30 02:57:14;;;;;;;15.50;12.05;;;15.80;99.90;;;;;;5038286;28;20192;-76
2023/07/30 02:59:41;;;;;;;16.73;13.68;;;15.80;99.90;;;;;;5035887;28;20287;-77
2023/07/30 03:02:08;;;;;;;20.27;12.70;;;15.80;99.90;;;;;;5032767;28;20302;-77
2023/07/30 03:04:37;;;;;;;17.88;11.10;;;15.70;99.90;;;;;;5042140;28;20957;-78
2023/07/30 03:07:04;;;;;;;18.83;12.18;;;15.80;99.90;;;;;;5038508;28;20234;-79
2023/07/30 03:09:31;;;;;;;10.48;9.18;;;15.80;99.90;;;;;;5033450;28;20636;-77
2023/07/30 03:11:58;;;;;;;15.75;11.50;;;15.70;99.90;;;;;;5040243;28;20675;-76
2023/07/30 03:14:25;;;;;;;15.45;12.20;;;15.70;99.90;;;;;;5043188;28;20232;-78
2023/07/30 03:16:52;;;;;;;17.47;11.33;;;15.80;99.90;;;;;;5043303;28;20208;-77
2023/07/30 03:19:19;;;;;;;11.77;10.57;;;15.70;99.90;;;;;;5042404;28;20534;-77
2023/07/30 03:21:47;;;;;;;12.00;10.68;;;15.70;99.90;;;;;;5044985;28;20286;-77
2023/07/30 03:24:14;;;;;;;12.70;10.93;;;15.80;99.90;;;;;;5034471;28;20308;-77
2023/07/30 03:26:40;;;;;;;13.53;12.00;;;15.70;99.90;;;;;;5040950;28;20293;-77
2023/07/30 03:29:07;;;;;;;21.77;14.93;;;15.70;99.90;;;;;;5046683;28;20535;-78
2023/07/30 03:31:34;;;;;;;15.00;13.15;;;15.70;99.90;;;;;;5040528;28;20210;-78
2023/07/30 03:34:01;;;;;;;16.30;12.35;;;15.70;99.90;;;;;;5034991;28;20220;-77
2023/07/30 03:36:28;;;;;;;18.65;12.95;;;15.60;99.90;;;;;;5043635;28;20284;-77
2023/07/30 03:38:56;;;;;;;23.08;15.25;;;15.60;99.90;;;;;;5044107;28;20205;-77
2023/07/30 03:41:23;;;;;;;15.98;12.27;;;15.60;99.90;;;;;;5040365;28;20213;-76
2023/07/30 03:43:50;;;;;;;20.17;13.30;;;15.60;99.90;;;;;;5046604;28;20225;-77
2023/07/30 03:46:17;;;;;;;22.70;11.57;;;15.70;99.90;;;;;;5039106;28;20671;-77
2023/07/30 03:48:44;;;;;;;12.67;11.37;;;15.70;99.90;;;;;;5037615;28;20465;-77
2023/07/30 03:51:12;;;;;;;17.23;11.63;;;15.70;99.90;;;;;;5037798;28;20566;-77
2023/07/30 03:53:39;;;;;;;16.52;11.90;;;15.70;99.90;;;;;;5034511;28;20460;-77
2023/07/30 03:56:07;;;;;;;19.50;12.73;;;15.80;99.90;;;;;;5043849;28;20209;-78
2023/07/30 03:58:35;;;;;;;13.95;9.88;;;15.70;99.90;;;;;;5045575;28;20657;-78
2023/07/30 04:01:02;;;;;;;17.90;8.90;;;15.80;99.90;;;;;;5049200;28;20207;-78
2023/07/30 04:03:29;;;;;;;21.30;9.77;;;15.70;99.90;;;;;;5034653;28;20257;-80
2023/07/30 04:05:56;;;;;;;10.48;8.40;;;15.80;99.90;;;;;;5038547;28;20232;-78
2023/07/30 04:08:23;;;;;;;15.55;8.70;;;15.80;99.90;;;;;;5045034;28;20202;-76
2023/07/30 04:10:50;;;;;;;16.88;10.07;;;15.90;99.90;;;;;;5043506;28;20238;-76
2023/07/30 04:13:18;;;;;;;13.55;9.05;;;16.00;99.90;;;;;;5047763;28;20311;-77
2023/07/30 04:15:45;;;;;;;12.48;7.60;;;16.00;99.90;;;;;;5038437;28;20202;-77
2023/07/30 04:18:12;;;;;;;13.80;7.40;;;16.10;99.90;;;;;;5043078;28;20289;-76
2023/07/30 04:20:39;;;;;;;13.93;6.90;;;16.10;99.90;;;;;;5039747;28;20210;-77
2023/07/30 04:23:06;;;;;;;15.35;7.80;;;16.10;99.90;;;;;;5038622;28;20322;-77
2023/07/30 04:25:33;;;;;;;16.98;9.38;;;16.20;99.90;;;;;;5028958;28;20244;-76
2023/07/30 04:27:59;;;;;;;9.02;6.38;;;16.20;99.90;;;;;;5038401;28;20206;-77
2023/07/30 04:30:28;;;;;;;13.30;5.97;;;16.20;99.90;;;;;;5037385;28;20591;-77
2023/07/30 04:32:54;;;;;;;17.95;8.10;;;16.20;99.90;;;;;;5044952;28;20474;-77
2023/07/30 04:35:21;;;;;;;12.95;5.35;;;16.20;99.90;;;;;;5043116;28;20630;-76
2023/07/30 04:37:48;;;;;;;13.88;5.82;;;16.30;99.90;;;;;;5038385;28;20203;-76
2023/07/30 04:40:15;;;;;;;17.60;5.70;;;16.30;99.90;;;;;;5044197;28;20305;-76
2023/07/30 04:42:42;;;;;;;11.93;6.67;;;16.50;99.90;;;;;;5040335;28;20235;-76
2023/07/30 04:45:10;;;;;;;15.88;5.38;;;16.80;99.90;;;;;;5059272;28;20487;-76
2023/07/30 04:47:39;;;;;;;12.30;4.90;;;17.20;99.90;;;;;;5048071;28;20222;-76
2023/07/30 04:50:06;;;;;;;8.73;4.67;;;17.60;99.90;;;;;;5032075;28;20461;-76
2023/07/30 04:52:33;;;;;;;13.07;4.43;;;17.90;99.90;;;;;;5034508;28;20529;-76
2023/07/30 04:55:00;;;;;;;11.73;5.47;;;18.00;99.90;;;;;;5042564;28;20474;-76
2023/07/30 04:57:27;;;;;;;10.73;4.00;;;18.30;99.90;;;;;;5035937;28;20525;-79
2023/07/30 04:59:55;;;;;;;8.03;3.90;;;18.60;99.90;;;;;;5030070;28;20472;-76
2023/07/30 05:02:25;;;;;;;13.10;4.27;;;18.70;99.90;;;;;;5034922;28;21044;-76
2023/07/30 05:04:53;;;;;;;11.90;4.87;;;18.70;99.90;;;;;;5036697;28;20523;-77
2023/07/30 05:07:20;;;;;;;11.67;3.60;;;19.00;99.90;;;;;;5037700;28;20811;-76
2023/07/30 05:09:47;;;;;;;7.50;4.13;;;19.20;99.90;;;;;;5038030;28;20806;-76
2023/07/30 05:12:14;;;;;;;9.63;4.17;;;19.30;99.90;;;;;;5036230;28;20566;-76
2023/07/30 05:14:41;;;;;;;10.93;5.00;;;19.40;99.90;;;;;;5035206;28;20467;-76
2023/07/30 05:17:09;;;;;;;8.50;4.20;;;19.30;99.90;;;;;;5035589;28;20538;-77
2023/07/30 05:19:36;;;;;;;8.07;3.50;;;19.30;99.90;;;;;;5034533;28;20447;-77
2023/07/30 05:22:07;;;;;;;10.93;3.73;;;19.40;99.90;;;;;;5035048;28;20449;-77
2023/07/30 05:24:36;;;;;;;6.70;3.73;;;19.80;99.90;;;;;;5030066;28;20475;-76
2023/07/30 05:27:06;;;;;;;9.57;3.57;;;20.30;99.90;;;;;;5035300;28;20481;-77
2023/07/30 05:29:33;;;;;;;9.87;4.57;;;21.10;99.90;;;;;;5035201;28;20475;-77
2023/07/30 05:32:00;;;;;;;6.50;3.40;;;21.70;99.90;;;;;;5035117;28;21076;-77
2023/07/30 05:34:27;;;;;;;9.63;3.53;;;22.20;99.90;;;;;;5035344;28;20467;-78
2023/07/30 05:36:54;;;;;;;5.83;3.03;;;22.60;99.90;;;;;;5035425;28;20447;-76
2023/07/30 05:39:22;;;;;;;9.07;3.87;;;22.90;99.90;;;;;;5035184;28;20815;-76
2023/07/30 05:41:51;;;;;;;8.67;4.07;;;23.50;99.90;;;;;;5035680;28;20554;-76
2023/07/30 05:44:17;;;;;;;8.70;3.77;;;24.00;99.90;;;;;;5035288;28;20995;-76
2023/07/30 05:46:44;;;;;;;7.07;3.80;;;24.20;99.90;;;;;;5035109;28;20541;-75
2023/07/30 05:49:11;;;;;;;9.93;3.90;;;24.30;99.90;;;;;;5034961;28;20443;-75
2023/07/30 05:51:38;;;;;;;9.87;3.40;;;24.10;99.90;;;;;;5034296;28;20489;-75
2023/07/30 05:54:05;;;;;;;9.20;4.10;;;23.30;99.90;;;;;;5041973;28;20833;-75
2023/07/30 05:56:33;;;;;;;9.20;3.77;;;23.20;99.90;;;;;;5034482;28;20450;-75
2023/07/30 05:59:00;;;;;;;13.73;5.20;;;22.70;99.90;;;;;;5034591;28;20910;-76
2023/07/30 06:01:27;;;;;;;13.47;4.60;;;21.60;99.90;;;;;;5034048;28;20493;-76
2023/07/30 06:03:54;;;;;;;8.30;4.37;;;20.90;99.90;;;;;;5033694;28;20470;-77
2023/07/30 06:06:26;;;;;;;12.13;4.47;;;21.10;99.90;;;;;;5034612;28;20450;-77
2023/07/30 06:08:53;;;;;;;10.70;3.90;;;21.90;99.90;;;;;;5034667;28;20447;-77
2023/07/30 06:11:20;;;;;;;8.33;3.50;;;23.00;99.90;;;;;;5048129;28;20480;-76
2023/07/30 06:13:49;;;;;;;8.87;3.57;;;24.00;99.90;;;;;;5049343;28;20474;-76
2023/07/30 06:16:18;;;;;;;7.33;3.23;;;24.80;99.90;;;;;;5035315;28;20478;-76
2023/07/30 06:18:45;;;;;;;5.90;3.33;;;25.30;99.90;;;;;;5040224;28;20817;-77
2023/07/30 06:21:12;;;;;;;8.73;3.60;;;25.00;99.90;;;;;;5039195;28;20470;-76
2023/07/30 06:23:39;;;;;;;10.67;3.40;;;25.60;99.90;;;;;;5034170;28;20482;-77
2023/07/30 06:26:06;;;;;;;10.07;4.13;;;25.40;99.90;;;;;;5044183;28;20497;-75
2023/07/30 06:28:34;;;;;;;9.27;4.43;;;25.40;99.10;;;;;;5046348;28;20880;-77
2023/07/30 06:31:03;;;;;;;12.23;3.70;;;25.70;99.70;;;;;;5044281;28;20561;-74
2023/07/30 06:33:30;;;;;;;7.33;3.53;;;25.90;98.00;;;;;;5059395;28;20533;-76
2023/07/30 06:35:56;;;;;;;6.77;3.97;;;26.60;98.20;;;;;;5049138;28;21000;-76
2023/07/30 06:38:24;;;;;;;11.03;4.00;;;26.50;96.90;;;;;;5034597;28;20837;-74
2023/07/30 06:40:50;;;;;;;7.63;4.30;;;27.30;95.90;;;;;;5042183;28;20447;-74
2023/07/30 06:43:17;;;;;;;11.40;3.80;;;27.70;95.30;;;;;;5041039;28;20519;-75
2023/07/30 06:45:44;;;;;;;6.10;3.73;;;27.60;94.00;;;;;;5046462;28;20786;-74
2023/07/30 06:48:13;;;;;;;9.17;3.40;;;27.20;94.60;;;;;;5042068;28;20541;-75
2023/07/30 06:50:40;;;;;;;10.20;4.20;;;26.80;95.40;;;;;;5039425;28;20438;-75
2023/07/30 06:53:07;;;;;;;12.03;4.10;;;26.90;96.00;;;;;;5041610;28;20474;-74
2023/07/30 06:55:34;;;;;;;11.20;5.13;;;26.30;95.80;;;;;;5041044;28;20824;-75
2023/07/30 06:58:01;;;;;;;13.03;5.57;;;26.00;96.30;;;;;;5043783;28;20442;-73
2023/07/30 07:00:28;;;;;;;12.00;5.43;;;25.50;97.30;;;;;;5044578;28;20630;-74
2023/07/30 07:02:55;;;;;;;11.93;4.20;;;25.90;97.50;;;;;;5039376;28;20481;-73
2023/07/30 07:05:23;;;;;;;12.77;5.67;;;26.30;97.60;;;;;;5049829;28;20500;-73
2023/07/30 07:07:50;;;;;;;10.20;5.00;;;25.90;96.80;;;;;;5044794;28;20524;-72
2023/07/30 07:10:17;;;;;;;10.47;4.67;;;25.30;98.40;;;;;;5049628;28;20509;-73
2023/07/30 07:12:45;;;;;;;10.30;4.93;;;24.90;99.70;;;;;;5045088;28;20899;-72
2023/07/30 07:15:12;;;;;;;13.50;6.30;;;23.90;99.90;;;;;;5044250;28;20450;-75
2023/07/30 07:17:39;;;;;;;14.07;5.10;;;23.20;99.90;;;;;;5045426;28;20451;-73
2023/07/30 07:20:07;;;;;;;16.60;5.30;;;23.10;99.90;;;;;;5037917;28;20800;-73
2023/07/30 07:22:36;;;;;;;10.37;4.70;;;23.10;99.90;;;;;;5047620;28;20445;-74
2023/07/30 07:25:04;;;;;;;16.13;4.90;;;23.30;99.90;;;;;;5045346;28;20526;-75
2023/07/30 07:27:31;;;;;;;9.43;4.97;;;23.00;99.90;;;;;;5045072;28;20450;-75
2023/07/30 07:29:57;;;;;;;14.63;6.30;;;22.70;99.90;;;;;;5049020;28;20454;-77
2023/07/30 07:32:25;;;;;;;18.37;6.07;;;22.90;99.90;;;;;;5050286;28;20497;-75
2023/07/30 07:34:52;;;;;;;12.97;5.20;;;23.10;99.90;;;;;;5047080;28;21000;-73
2023/07/30 07:37:19;;;;;;;11.33;4.33;;;23.30;99.90;;;;;;5042999;28;20536;-74
2023/07/30 07:39:48;;;;;;;16.63;5.47;;;24.20;99.90;;;;;;5031866;28;20502;-75
2023/07/30 07:42:15;;;;;;;9.43;5.13;;;25.10;99.90;;;;;;5036406;28;20442;-74
2023/07/30 07:44:43;;;;;;;12.87;4.30;;;25.60;99.90;;;;;;5032290;28;20472;-76
2023/07/30 07:47:10;;;;;;;14.10;4.90;;;25.60;98.90;;;;;;5041899;28;20450;-74
2023/07/30 07:49:37;;;;;;;12.20;5.07;;;25.10;99.40;;;;;;5039704;28;20477;-76
2023/07/30 07:52:04;;;;;;;10.07;4.30;;;24.80;99.90;;;;;;5041676;28;20497;-77
2023/07/30 07:54:31;;;;;;;11.17;4.50;;;24.70;99.90;;;;;;5034588;28;20557;-76
2023/07/30 07:57:00;;;;;;;16.10;4.83;;;24.80;99.90;;;;;;5030699;28;20479;-77
2023/07/30 07:59:27;;;;;;;14.80;5.10;;;25.10;99.90;;;;;;5031450;28;20459;-75
2023/07/30 08:01:54;;;;;;;20.70;5.33;;;25.70;98.90;;;;;;5034257;28;20826;-74
2023/07/30 08:04:22;;;;;;;10.90;4.10;;;26.10;96.70;;;;;;5032457;28;20828;-76
2023/07/30 08:06:49;;;;;;;12.83;4.47;;;26.00;96.50;;;;;;5034290;28;21289;-76
2023/07/30 08:09:16;;;;;;;9.03;3.60;;;25.30;96.50;;;;;;5042738;28;20453;-77
2023/07/30 08:11:42;;;;;;;12.23;5.13;;;24.70;97.90;;;;;;5050101;28;20470;-75
2023/07/30 08:14:13;;;;;;;13.30;4.10;;;24.40;99.40;;;;;;5062021;28;20466;-75
2023/07/30 08:16:40;;;;;;;11.30;4.43;;;24.20;99.90;;;;;;5032228;28;20522;-77
2023/07/30 08:19:06;;;;;;;17.57;4.57;;;23.70;99.90;;;;;;5029700;28;20537;-77
2023/07/30 08:21:33;;;;;;;12.17;4.10;;;23.60;99.90;;;;;;5021287;28;20510;-79
2023/07/30 08:24:00;;;;;;;8.53;4.43;;;23.20;99.90;;;;;;5035428;28;20545;-74
2023/07/30 08:26:27;;;;;;;10.53;4.13;;;23.00;99.90;;;;;;5041437;28;20447;-74
2023/07/30 08:28:54;;;;;;;19.10;4.33;;;23.00;99.90;;;;;;5043955;28;20450;-75
2023/07/30 08:31:22;;;;;;;14.60;4.50;;;22.70;99.90;;;;;;5051612;28;20522;-75
2023/07/30 08:33:50;;;;;;;16.80;5.13;;;22.60;99.90;;;;;;5040565;28;20553;-74
2023/07/30 08:36:18;;;;;;;10.57;4.27;;;22.50;99.90;;;;;;5032182;28;20534;-75
2023/07/30 08:38:45;;;;;;;11.60;4.47;;;22.30;99.90;;;;;;5042037;28;20513;-77
2023/07/30 08:41:12;;;;;;;10.10;4.30;;;21.90;99.90;;;;;;5038552;28;20877;-74
2023/07/30 08:43:39;;;;;;;8.97;4.80;;;21.80;99.90;;;;;;5046386;28;20494;-76
2023/07/30 08:46:06;;;;;;;10.57;5.00;;;21.80;99.90;;;;;;5034704;28;20458;-75
2023/07/30 08:48:41;;;;;;;14.93;6.50;;;21.80;99.90;;;;;;5043061;28;20461;-75
2023/07/30 08:51:08;;;;;;;17.47;4.70;;;21.60;99.90;;;;;;5038489;28;20520;-73
2023/07/30 08:53:35;;;;;;;6.23;4.33;;;21.30;99.90;;;;;;5046632;28;20569;-73
2023/07/30 08:56:03;;;;;;;9.03;4.30;;;21.30;99.90;;;;;;5034288;28;20451;-75
2023/07/30 08:58:32;;;;;;;13.80;5.50;;;21.60;99.90;;;;;;5041948;28;20478;-74
2023/07/30 09:00:59;;;;;;;11.70;6.03;;;21.50;99.90;;;;;;5036362;28;20541;-72
2023/07/30 09:03:30;;;;;;;9.77;5.50;;;21.30;99.90;;;;;;5037020;28;20465;-75
2023/07/30 09:05:58;;;;;;;12.30;5.27;;;21.30;99.90;;;;;;5035841;28;20542;-76
2023/07/30 09:08:25;;;;;;;19.57;5.50;;;21.70;99.90;;;;;;5030920;28;20537;-77
2023/07/30 09:10:52;;;;;;;9.67;5.03;;;21.90;99.90;;;;;;5034822;28;20530;-74
2023/07/30 09:13:23;;;;;;;12.33;5.97;;;22.10;99.90;;;;;;5048235;28;20500;-74
2023/07/30 09:15:50;;;;;;;10.43;5.93;;;22.10;99.90;;;;;;5029081;28;20542;-74
2023/07/30 09:18:18;;;;;;;15.47;5.63;;;22.30;99.90;;;;;;5030792;28;20551;-74
2023/07/30 09:20:45;;;;;;;8.70;4.80;;;22.50;99.90;;;;;;5033285;28;20448;-74
2023/07/30 09:23:13;;;;;;;13.80;5.60;;;22.60;99.90;;;;;;5039121;28;20471;-74
2023/07/30 09:25:40;;;;;;;9.83;5.00;;;22.60;99.90;;;;;;5039508;28;20442;-75
2023/07/30 09:28:08;;;;;;;14.07;5.60;;;22.70;99.90;;;;;;5038114;28;20474;-75
2023/07/30 09:30:35;;;;;;;11.10;4.33;;;22.60;99.90;;;;;;5034591;28;20447;-75
2023/07/30 09:33:02;;;;;;;8.87;5.20;;;22.50;99.90;;;;;;5034795;28;20509;-75
2023/07/30 09:35:29;;;;;;;17.83;5.63;;;22.20;99.90;;;;;;5038370;28;20463;-75
2023/07/30 09:38:01;;;;;;;16.63;6.57;;;22.00;99.90;;;;;;5033821;28;20451;-75
2023/07/30 09:40:38;;;;;;;9.43;4.80;;;21.90;99.90;;;;;;5034797;28;20459;-76
2023/07/30 09:43:06;;;;;;;16.60;6.57;;;21.80;99.90;;;;;;5034592;28;20470;-76
2023/07/30 09:45:35;;;;;;;14.07;5.60;;;21.90;99.90;;;;;;5040967;28;20458;-76
2023/07/30 09:48:04;;;;;;;9.30;6.00;;;21.80;99.90;;;;;;5042684;28;20815;-75
2023/07/30 09:50:31;;;;;;;11.60;5.73;;;21.80;99.90;;;;;;5038475;28;20833;-75
2023/07/30 09:53:01;;;;;;;16.13;6.37;;;21.60;99.90;;;;;;5041670;28;20479;-75
2023/07/30 09:55:28;;;;;;;15.67;6.30;;;21.60;99.90;;;;;;5043737;28;20530;-76
2023/07/30 09:57:58;;;;;;;9.27;5.30;;;22.00;99.90;;;;;;5038659;28;20452;-74
2023/07/30 10:00:25;;;;;;;14.90;6.57;;;22.10;99.90;;;;;;5048098;28;20454;-75
2023/07/30 10:02:56;;;;;;;7.47;5.80;;;22.10;99.90;;;;;;5049528;28;20513;-75
2023/07/30 10:05:29;;;;;;;13.30;5.83;;;21.90;99.90;;;;;;5035198;28;20455;-75
2023/07/30 10:08:00;;;;;;;11.20;5.23;;;21.80;99.90;;;;;;5034929;28;20925;-75
2023/07/30 10:10:29;;;;;;;11.83;5.00;;;21.80;99.90;;;;;;5042870;28;20474;-77
2023/07/30 10:13:03;;;;;;;11.10;6.03;;;21.90;99.90;;;;;;5034406;28;20555;-74
2023/07/30 10:15:30;;;;;;;12.23;5.50;;;21.90;99.90;;;;;;5043368;28;20453;-74
2023/07/30 10:17:58;;;;;;;10.63;4.50;;;22.10;99.90;;;;;;5035300;28;20440;-74
2023/07/30 10:20:26;;;;;;;10.70;4.40;;;22.00;99.90;;;;;;5030740;28;20484;-75
2023/07/30 10:22:54;;;;;;;11.33;4.63;;;22.00;99.90;;;;;;5044658;28;20549;-75
2023/07/30 10:25:29;;;;;;;10.80;4.70;;;22.10;99.90;;;;;;5037272;28;20458;-74
2023/07/30 10:27:56;;;;;;;12.50;5.03;;;22.40;99.90;;;;;;5040649;28;20468;-74
2023/07/30 10:30:31;;;;;;;12.20;5.30;;;22.30;99.90;;;;;;5028972;28;20993;-70
2023/07/30 10:33:00;;;;;;;10.87;4.63;;;22.40;99.90;;;;;;5039405;28;20493;-74
2023/07/30 10:35:40;;;;;;;10.60;4.50;;;22.40;99.90;;;;;;5031196;28;20970;-73
2023/07/30 10:38:20;;;;;;;9.63;4.30;;;22.50;99.90;;;;;;5040898;28;20443;-73
2023/07/30 10:41:05;;;;;;;8.80;4.90;;;22.80;99.90;;;;;;5034387;28;20450;-71
2023/07/30 10:43:35;;;;;;;7.63;3.73;;;23.10;99.20;;;;;;5038411;28;20553;-73
2023/07/30 10:46:04;;;;;;;11.23;4.43;;;23.00;98.00;;;;;;5034411;28;20443;-74
2023/07/30 10:48:33;;;;;;;14.30;5.13;;;23.30;98.00;;;;;;5046746;28;20538;-74
2023/07/30 10:51:01;;;;;;;11.73;4.40;;;23.30;98.10;;;;;;5034021;28;20531;-71
2023/07/30 10:53:28;;;;;;;11.20;4.13;;;23.50;97.90;;;;;;5044572;28;21061;-72
2023/07/30 10:55:59;;;;;;;11.63;5.83;;;23.80;97.80;;;;;;5034315;28;20470;-72
2023/07/30 10:58:27;;;;;;;8.10;5.03;;;24.20;97.20;;;;;;5041224;28;20817;-72
2023/07/30 11:00:53;;;;;;;7.40;4.27;;;24.30;96.10;;;;;;5038197;28;20443;-72
2023/07/30 11:03:24;;;;;;;10.03;4.37;;;24.30;96.30;;;;;;5040399;28;20520;-70
2023/07/30 11:05:51;;;;;;;9.00;4.07;;;24.30;95.70;;;;;;5043021;28;20822;-72
2023/07/30 11:08:19;;;;;;;7.80;3.70;;;24.30;96.30;;;;;;5031587;28;20557;-71
2023/07/30 11:10:47;;;;;;;7.77;4.20;;;24.40;96.30;;;;;;5039066;28;20443;-72
2023/07/30 11:13:15;;;;;;;6.97;3.80;;;24.50;95.50;;;;;;5043522;28;20881;-72
2023/07/30 11:15:43;;;;;;;7.20;3.83;;;24.60;94.80;;;;;;5042316;28;20944;-72
2023/07/30 11:18:11;;;;;;;9.53;3.83;;;24.80;95.40;;;;;;5041830;28;20830;-71
2023/07/30 11:20:40;;;;;;;12.90;4.90;;;24.40;95.00;;;;;;5046138;28;20821;-71
2023/07/30 11:23:23;;;;;;;8.47;3.40;;;24.30;95.10;;;;;;5044371;28;20965;-71
2023/07/30 11:25:50;;;;;;;5.43;3.73;;;24.20;94.80;;;;;;5024297;28;20452;-72
2023/07/30 11:28:30;;;;;;;7.20;4.37;;;23.90;95.90;;;;;;5040422;28;20906;-72
2023/07/30 11:31:00;;;;;;;12.47;5.60;;;24.00;96.20;;;;;;5045384;28;20496;-71
2023/07/30 11:33:28;;;;;;;8.17;3.30;;;23.70;95.60;;;;;;5043908;28;20486;-72
2023/07/30 11:35:57;;;;;;;5.50;3.10;;;23.40;95.80;;;;;;5038883;28;20555;-73
2023/07/30 11:38:24;;;;;;;8.47;3.43;;;22.50;96.30;;;;;;5041262;28;20822;-73
2023/07/30 11:40:52;;;;;;;12.27;4.13;;;22.10;96.90;;;;;;5029353;28;20448;-71
2023/07/30 11:43:20;;;;;;;8.37;4.00;;;21.70;98.40;;;;;;5045113;28;20469;-72
2023/07/30 11:45:47;;;;;;;11.70;3.93;;;21.50;99.20;;;;;;5042939;28;20852;-72
2023/07/30 11:48:14;;;;;;;7.10;4.10;;;21.40;99.60;;;;;;5037368;28;20438;-73
2023/07/30 11:50:49;;;;;;;10.50;4.80;;;21.50;99.70;;;;;;5032682;28;20852;-72
2023/07/30 11:53:19;;;;;;;11.97;4.70;;;21.40;99.30;;;;;;5022901;28;20564;-72
2023/07/30 11:55:47;;;;;;;11.40;4.20;;;21.50;99.30;;;;;;5048845;28;20460;-71
2023/07/30 11:58:14;;;;;;;10.93;4.20;;;21.50;99.50;;;;;;5037166;28;20474;-72
2023/07/30 12:00:43;;;;;;;8.47;4.10;;;21.40;99.40;;;;;;5044214;28;20461;-72
2023/07/30 12:03:12;;;;;;;8.07;4.23;;;21.40;99.90;;;;;;5041440;28;20462;-73
2023/07/30 12:05:40;;;;;;;8.20;4.73;;;21.10;99.90;;;;;;5044395;28;20446;-73
2023/07/30 12:08:14;;;;;;;7.80;5.80;;;20.90;99.90;;;;;;5041240;28;20798;-72
2023/07/30 12:10:46;;;;;;;10.50;4.30;;;20.90;99.90;;;;;;5042814;28;20944;-71
2023/07/30 12:13:15;;;;;;;11.03;5.10;;;20.60;99.90;;;;;;5043291;28;20845;-72
2023/07/30 12:15:44;;;;;;;12.63;5.13;;;20.80;99.90;;;;;;5046444;28;20459;-71
2023/07/30 12:18:11;;;;;;;10.83;4.50;;;20.80;99.90;;;;;;5042621;28;20448;-72
2023/07/30 12:20:38;;;;;;;3.70;2.20;;;20.30;99.90;;;;;;5047456;28;20536;-71
2023/07/30 12:23:05;;;;;;;6.00;3.10;;;19.90;99.90;;;;;;5041956;28;20544;-71
2023/07/30 12:25:32;;;;;;;5.50;2.67;;;19.50;99.90;;;;;;5042974;28;20454;-71
2023/07/30 12:28:00;;;;;;;4.70;2.87;;;19.00;99.90;;;;;;5043677;28;20446;-75
2023/07/30 12:30:27;;;;;;;6.33;2.50;;;18.60;99.90;;;;;;5041818;28;20544;-73
2023/07/30 12:32:55;;;;;;;3.60;2.07;;;18.30;99.90;;;;;;5048187;28;20987;-73
2023/07/30 12:35:21;;;;;;;3.53;2.13;;;18.10;99.90;;;;;;5036477;28;20832;-73
2023/07/30 12:37:48;;;;;;;5.70;2.40;;;18.00;99.90;;;;;;5029460;28;20857;-73
2023/07/30 12:40:15;;;;;;;6.90;2.40;;;17.80;99.90;;;;;;5035745;28;20453;-73